William & Lauren — WAN8365 — position and weather

sailwx.info

Track history (hours):
 
Tides and Currents Weather Stations Pressure Air Temp Water Temp Dewpoint Dewpoint Depression Visibility Wind Speed Wind Dir Waves Ship Positions

William & Lauren

Owner: F/V WILLIAM & LAUREN INC, BARNEGAT LIGHT, NJ. More information available from US FCC via Universal Licensing System and Coast Guard Vessel Documentation Center.

Last reported at 2018-Jun-22 11:31 UTC. Time now 2018-Jun-24 18:48 UTC.
Position N 39°52' W 072°45'.

Length 21 m.

Type: Fishing. MMSI: 367059740.

Date/timePositionNaut miles runAvg speedWind from/ knotsBaromVisibWave heightAir tempDewpointWater temp
2018-Jun-22 11:31N 39°52' W 072°45'1 4.5
2018-Jun-22 11:20N 39°52' W 072°46'0 0.9
2018-Jun-22 10:48N 39°52' W 072°47'1 4.7
2018-Jun-22 10:30N 39°52' W 072°45'  
2018-Jun-15 17:43N 39°48' W 073°58'2 7.8
2018-Jun-15 17:26N 39°47' W 074°01'4 7.2
2018-Jun-15 16:54N 39°46' W 074°06'1 0.0
2018-Jun-14 14:29N 39°45' W 074°07'0 0.0
2018-Jun-14 04:20N 39°45' W 074°07'0 0.0
2018-Jun-13 18:50N 39°45' W 074°07'0 0.0
2018-Jun-13 18:20N 39°45' W 074°07'0 0.0
2018-Jun-13 17:50N 39°45' W 074°07'0 0.0
2018-Jun-13 14:32N 39°45' W 074°07'0 0.0
2018-Jun-13 10:38N 39°45' W 074°07'0 0.0
2018-Jun-13 08:02N 39°45' W 074°07'0 0.1
2018-Jun-13 07:53N 39°45' W 074°07'0 0.0
2018-Jun-13 00:20N 39°45' W 074°07'0 0.0
2018-Jun-12 21:50N 39°45' W 074°07'0 0.0
2018-Jun-12 13:35N 39°45' W 074°07'0 0.0
2018-Jun-12 12:20N 39°45' W 074°07'0 0.0
2018-Jun-12 11:50N 39°45' W 074°07'  
Track history (hours):
 
Tides and Currents Weather Stations Pressure Air Temp Water Temp Dewpoint Dewpoint Depression Visibility Wind Speed Wind Dir Waves Ship Positions

William & Lauren

Owner: F/V WILLIAM & LAUREN INC, BARNEGAT LIGHT, NJ. More information available from US FCC via Universal Licensing System and Coast Guard Vessel Documentation Center.

Last reported at 2018-Jun-22 11:31 UTC. Time now 2018-Jun-24 18:48 UTC.
Position N 39°52' W 072°45'.

Length 21 m.

Type: Fishing. MMSI: 367059740.

Date/timePositionNaut miles runAvg speedWind from/ knotsBaromVisibWave heightAir tempDewpointWater temp
2018-Jun-22 11:31N 39°52' W 072°45'1 4.5
2018-Jun-22 11:20N 39°52' W 072°46'0 0.9
2018-Jun-22 10:48N 39°52' W 072°47'1 4.7
2018-Jun-22 10:30N 39°52' W 072°45'  
2018-Jun-15 17:43N 39°48' W 073°58'2 7.8
2018-Jun-15 17:26N 39°47' W 074°01'4 7.2
2018-Jun-15 16:54N 39°46' W 074°06'1 0.0
2018-Jun-14 14:29N 39°45' W 074°07'0 0.0
2018-Jun-14 04:20N 39°45' W 074°07'0 0.0
2018-Jun-13 18:50N 39°45' W 074°07'0 0.0
2018-Jun-13 18:20N 39°45' W 074°07'0 0.0
2018-Jun-13 17:50N 39°45' W 074°07'0 0.0
2018-Jun-13 14:32N 39°45' W 074°07'0 0.0
2018-Jun-13 10:38N 39°45' W 074°07'0 0.0
2018-Jun-13 08:02N 39°45' W 074°07'0 0.1
2018-Jun-13 07:53N 39°45' W 074°07'0 0.0
2018-Jun-13 00:20N 39°45' W 074°07'0 0.0
2018-Jun-12 21:50N 39°45' W 074°07'0 0.0
2018-Jun-12 13:35N 39°45' W 074°07'0 0.0
2018-Jun-12 12:20N 39°45' W 074°07'0 0.0
2018-Jun-12 11:50N 39°45' W 074°07'  

Dump ship's entire track history